Reddick, Illinois
Current Conditions -  °F | °C
As of 11:35 PM on Wednesday 22 Oct 2014 (Local Time) from KIKK Reporting Station
Clear Clear  
Wind Chill: 38°   Ceiling: Unl
Heat Index: 38°   Visibility: 10mi
Dew Point: 36°   Wind: 3mph
Humidity: 91%   Direction: 70°ENE
Pressure: 30.28"   Gusts: NA
Location:  41.1°N, 88.25°W
Report Text: KIKK 230435Z AUTO 07003KT 10SM CLR 04/02 A3028 RMK AO2 T00350021
Loading
Personal Weather Stations






























Interactive Weather Map New forecast layout! Learn more

10-Day Weather Forecast

Advertisements
Track Severe Weather on mobile